Time;durP1;ratioP1;P1;durP2;ratioP2;P2;SDS_P1;SDS_P2;PMS_P1;PMS_P2;Temp;Humidity;BMP_temperature;BMP_pressure;BME280_temperature;BME280_humidity;BME280_pressure;Samples;Min_cycle;Max_cycle;Signal;HPM_P1;HPM_P2
2021/07/13 00:01:08;;;;;;;25.77;23.20;;;19.40;99.90;;;;;;5025032;28;20210;-83
2021/07/13 00:03:35;;;;;;;35.97;32.08;;;19.40;99.90;;;;;;5026193;28;20213;-83
2021/07/13 00:06:03;;;;;;;32.40;28.98;;;19.40;99.90;;;;;;5026839;28;20195;-83
2021/07/13 00:08:30;;;;;;;36.67;32.85;;;19.40;99.90;;;;;;5026860;28;20202;-81
2021/07/13 00:10:57;;;;;;;35.83;32.13;;;19.40;99.90;;;;;;5026045;28;20700;-82
2021/07/13 00:13:24;;;;;;;33.60;30.05;;;19.30;99.90;;;;;;5026458;28;20446;-82
2021/07/13 00:15:53;;;;;;;45.35;40.05;;;19.30;99.90;;;;;;5026042;28;20246;-84
2021/07/13 00:18:20;;;;;;;41.15;36.72;;;19.30;99.90;;;;;;5025555;28;20276;-81
2021/07/13 00:20:47;;;;;;;42.75;38.50;;;19.30;99.90;;;;;;5026584;28;20231;-81
2021/07/13 00:23:14;;;;;;;42.28;37.33;;;19.30;99.90;;;;;;5025840;28;20626;-82
2021/07/13 00:25:41;;;;;;;43.08;38.38;;;19.30;99.90;;;;;;5025905;28;20206;-80
2021/07/13 00:28:07;;;;;;;38.92;34.83;;;19.20;99.90;;;;;;5026308;28;20206;-81
2021/07/13 00:30:34;;;;;;;41.70;37.25;;;19.20;99.90;;;;;;5013601;28;20207;-85
2021/07/13 00:33:02;;;;;;;38.58;33.75;;;19.20;99.90;;;;;;5007319;28;20207;-80
2021/07/13 00:35:29;;;;;;;38.30;32.63;;;19.20;99.90;;;;;;5005964;28;20238;-83
2021/07/13 00:37:56;;;;;;;38.45;33.63;;;19.20;99.90;;;;;;5018526;28;20210;-83
2021/07/13 00:40:25;;;;;;;43.63;38.95;;;19.20;99.90;;;;;;5026300;28;20218;-83
2021/07/13 00:42:53;;;;;;;37.92;33.85;;;19.10;99.90;;;;;;5030044;28;20229;-83
2021/07/13 00:45:21;;;;;;;38.50;34.30;;;19.10;99.90;;;;;;5029111;28;20245;-83
2021/07/13 00:47:50;;;;;;;42.35;37.38;;;19.10;99.90;;;;;;5030666;28;20216;-82
2021/07/13 00:50:20;;;;;;;41.17;35.22;;;19.00;99.90;;;;;;5028841;28;20199;-84
2021/07/13 00:52:47;;;;;;;45.72;40.13;;;19.00;99.90;;;;;;5029959;28;20218;-83
2021/07/13 00:55:15;;;;;;;50.80;41.33;;;19.00;99.90;;;;;;5027841;28;20198;-84
2021/07/13 00:57:42;;;;;;;45.60;40.42;;;19.10;99.90;;;;;;5024279;28;20302;-81
2021/07/13 01:00:12;;;;;;;52.58;42.80;;;19.00;99.90;;;;;;5006910;28;20223;-83
2021/07/13 01:02:39;;;;;;;44.05;37.30;;;19.00;99.90;;;;;;5007332;28;20510;-82
2021/07/13 01:05:11;;;;;;;53.83;45.55;;;19.00;99.90;;;;;;5006383;28;20244;-83
2021/07/13 01:07:49;;;;;;;54.67;43.95;;;18.90;99.90;;;;;;5013172;28;20218;-81
2021/07/13 01:10:25;;;;;;;62.00;48.63;;;19.00;99.90;;;;;;5024687;28;20230;-82
2021/07/13 01:13:02;;;;;;;58.97;47.70;;;19.00;99.90;;;;;;5025377;28;20280;-83
2021/07/13 01:15:34;;;;;;;61.13;49.85;;;19.00;99.90;;;;;;5024921;28;20242;-83
2021/07/13 01:18:04;;;;;;;63.42;49.08;;;19.00;99.90;;;;;;5024999;28;20808;-83
2021/07/13 01:21:03;;;;;;;71.68;54.47;;;19.00;99.90;;;;;;5024770;28;20226;-82
2021/07/13 01:23:41;;;;;;;73.13;55.90;;;19.00;99.90;;;;;;5005407;28;20218;-80
2021/07/13 01:26:14;;;;;;;79.32;58.53;;;19.00;99.90;;;;;;5005570;28;20258;-81
2021/07/13 01:28:46;;;;;;;71.50;52.50;;;19.10;99.90;;;;;;5006565;28;20590;-81
2021/07/13 01:31:17;;;;;;;74.13;54.63;;;19.10;99.90;;;;;;5019621;28;20607;-82
2021/07/13 01:33:53;;;;;;;69.55;54.13;;;19.10;99.90;;;;;;5025487;28;20194;-82
2021/07/13 01:36:27;;;;;;;75.10;55.75;;;19.10;99.90;;;;;;5025273;28;20213;-82
2021/07/13 01:38:58;;;;;;;74.95;53.25;;;19.10;99.90;;;;;;5024707;28;20209;-80
2021/07/13 01:41:27;;;;;;;71.53;53.40;;;19.10;99.90;;;;;;5024462;28;20278;-81
2021/07/13 01:43:57;;;;;;;74.78;51.95;;;19.10;99.90;;;;;;5025934;28;20206;-85
2021/07/13 01:46:24;;;;;;;74.38;54.22;;;19.10;99.90;;;;;;5024312;28;20222;-82
2021/07/13 01:48:54;;;;;;;76.72;54.70;;;19.10;99.90;;;;;;5006544;28;20253;-82
2021/07/13 01:51:22;;;;;;;69.40;50.05;;;19.10;99.90;;;;;;5006669;28;20210;-82
2021/07/13 01:53:51;;;;;;;76.95;54.03;;;19.20;99.90;;;;;;5025942;28;20229;-84
2021/07/13 01:56:19;;;;;;;72.57;51.42;;;19.20;99.90;;;;;;5025501;28;20501;-82
2021/07/13 01:58:47;;;;;;;68.10;51.08;;;19.20;99.90;;;;;;5025709;28;20207;-84
2021/07/13 02:01:19;;;;;;;74.20;51.97;;;19.20;99.90;;;;;;5026006;28;20226;-83
2021/07/13 02:03:49;;;;;;;76.25;53.10;;;19.30;99.90;;;;;;5034221;28;20210;-84
2021/07/13 02:06:18;;;;;;;72.75;53.10;;;19.20;99.90;;;;;;5011489;28;20206;-83
2021/07/13 02:08:45;;;;;;;69.75;48.90;;;19.20;99.90;;;;;;5010031;28;20215;-81
2021/07/13 02:11:13;;;;;;;75.03;53.15;;;19.30;99.90;;;;;;5028813;23;20213;-82
2021/07/13 02:13:40;;;;;;;75.72;52.90;;;19.20;99.90;;;;;;5047861;28;20206;-81
2021/07/13 02:16:07;;;;;;;66.03;49.10;;;19.20;99.90;;;;;;5044847;28;20205;-87
2021/07/13 02:18:36;;;;;;;64.30;48.85;;;19.20;99.90;;;;;;5047802;28;20268;-86
2021/07/13 02:21:03;;;;;;;66.13;49.83;;;19.20;99.90;;;;;;5046552;28;20233;-84
2021/07/13 02:23:29;;;;;;;61.75;46.35;;;19.20;99.90;;;;;;5041880;28;20213;-83
2021/07/13 02:26:02;;;;;;;58.35;43.85;;;19.20;99.90;;;;;;5027894;28;20202;-82
2021/07/13 02:28:34;;;;;;;66.55;46.75;;;19.20;99.90;;;;;;5028008;28;20218;-82
2021/07/13 02:31:04;;;;;;;60.78;45.33;;;19.20;99.90;;;;;;5025911;28;20206;-82
2021/07/13 02:33:39;;;;;;;61.97;46.72;;;19.20;99.90;;;;;;5025495;28;20494;-82
2021/07/13 02:36:13;;;;;;;56.47;42.83;;;19.20;99.90;;;;;;5024971;28;20201;-84
2021/07/13 02:38:41;;;;;;;57.95;43.67;;;19.30;99.90;;;;;;5027098;28;20644;-85
2021/07/13 02:41:08;;;;;;;52.47;40.58;;;19.20;99.90;;;;;;5024208;28;20246;-84
2021/07/13 02:43:37;;;;;;;56.05;43.33;;;19.20;99.90;;;;;;5027796;28;20206;-85
2021/07/13 02:46:04;;;;;;;58.80;43.10;;;19.20;99.90;;;;;;5028423;28;20222;-84
2021/07/13 02:48:31;;;;;;;51.15;40.17;;;19.20;99.90;;;;;;5030660;28;20198;-87
2021/07/13 02:51:01;;;;;;;49.28;37.58;;;19.10;99.90;;;;;;5030244;28;20199;-81
2021/07/13 02:53:29;;;;;;;60.35;45.17;;;19.20;99.90;;;;;;5029185;28;20202;-81
2021/07/13 02:55:58;;;;;;;58.55;43.30;;;19.20;99.90;;;;;;5029170;28;20234;-80
2021/07/13 02:58:25;;;;;;;53.83;43.10;;;19.10;99.90;;;;;;5028979;28;20199;-81
2021/07/13 03:00:53;;;;;;;53.42;41.20;;;19.20;99.90;;;;;;5032707;28;20218;-86
2021/07/13 03:03:22;;;;;;;51.47;40.95;;;19.20;99.90;;;;;;5049215;28;20209;-87
2021/07/13 03:05:50;;;;;;;53.05;40.90;;;19.20;99.90;;;;;;5042433;28;20517;-81
2021/07/13 03:08:20;;;;;;;56.15;41.13;;;19.10;99.90;;;;;;5028464;28;20209;-82
2021/07/13 03:10:48;;;;;;;58.00;42.40;;;19.10;99.90;;;;;;5030736;28;20255;-84
2021/07/13 03:13:15;;;;;;;59.67;43.53;;;19.10;99.90;;;;;;5027550;28;20238;-82
2021/07/13 03:15:43;;;;;;;53.88;41.22;;;19.10;99.90;;;;;;5028378;28;20217;-85
2021/07/13 03:18:10;;;;;;;55.78;43.65;;;19.10;99.90;;;;;;5027522;28;20209;-82
2021/07/13 03:20:37;;;;;;;54.90;41.42;;;19.10;99.90;;;;;;5029595;28;20246;-82
2021/07/13 03:23:05;;;;;;;59.70;44.45;;;19.00;99.90;;;;;;5029293;28;20210;-88
2021/07/13 03:25:36;;;;;;;54.95;41.63;;;19.00;99.90;;;;;;5033761;28;20333;-82
2021/07/13 03:28:04;;;;;;;58.28;41.28;;;19.10;99.90;;;;;;5037300;28;20615;-83
2021/07/13 03:30:31;;;;;;;56.78;42.17;;;19.10;99.90;;;;;;5028783;28;20202;-81
2021/07/13 03:32:59;;;;;;;59.88;42.38;;;19.10;99.90;;;;;;5038516;28;20218;-81
2021/07/13 03:35:27;;;;;;;52.15;39.70;;;19.00;99.90;;;;;;5029615;28;20202;-80
2021/07/13 03:37:54;;;;;;;55.22;42.33;;;19.00;99.90;;;;;;5029592;28;20876;-84
2021/07/13 03:40:24;;;;;;;50.47;37.40;;;19.10;99.90;;;;;;5030138;28;20229;-84
2021/07/13 03:42:53;;;;;;;52.30;37.70;;;19.00;99.90;;;;;;5031293;28;20584;-82
2021/07/13 03:45:21;;;;;;;49.78;37.28;;;19.00;99.90;;;;;;5028535;28;20234;-86
2021/07/13 03:47:49;;;;;;;52.22;38.58;;;19.00;99.90;;;;;;5029417;28;20210;-81
2021/07/13 03:50:16;;;;;;;49.97;37.13;;;19.00;99.90;;;;;;5029579;28;20202;-83
2021/07/13 03:52:43;;;;;;;49.47;36.17;;;19.00;99.90;;;;;;5033777;28;20220;-82
2021/07/13 03:55:11;;;;;;;48.00;36.42;;;19.00;99.90;;;;;;5048906;28;20198;-86
2021/07/13 03:57:38;;;;;;;45.47;34.50;;;19.00;99.90;;;;;;5049234;28;20198;-85
2021/07/13 04:00:09;;;;;;;55.67;39.67;;;18.90;99.90;;;;;;5047751;28;20225;-83
2021/07/13 04:02:36;;;;;;;45.45;35.42;;;18.90;99.90;;;;;;5047860;28;20202;-81
2021/07/13 04:05:03;;;;;;;45.55;35.38;;;18.90;99.90;;;;;;5044019;28;20203;-83
2021/07/13 04:07:30;;;;;;;49.72;37.75;;;18.90;99.90;;;;;;5029733;28;20253;-84
2021/07/13 04:09:56;;;;;;;48.00;37.03;;;18.90;99.90;;;;;;5041440;28;20209;-81
2021/07/13 04:12:23;;;;;;;44.28;35.60;;;18.90;99.90;;;;;;5048576;28;20241;-83
2021/07/13 04:14:50;;;;;;;43.53;34.22;;;18.90;99.90;;;;;;5032541;28;20206;-87
2021/07/13 04:17:18;;;;;;;41.67;34.00;;;18.90;99.90;;;;;;5028363;28;20210;-85
2021/07/13 04:19:45;;;;;;;43.50;35.15;;;18.80;99.90;;;;;;5029179;28;20195;-85
2021/07/13 04:22:12;;;;;;;44.33;34.10;;;18.90;99.90;;;;;;5043442;28;20213;-85
2021/07/13 04:24:39;;;;;;;43.33;34.15;;;18.90;99.90;;;;;;5048927;28;20206;-85
2021/07/13 04:27:06;;;;;;;41.50;33.80;;;18.90;99.90;;;;;;5048728;28;20918;-83
2021/07/13 04:29:33;;;;;;;42.80;33.53;;;18.90;99.90;;;;;;5047197;28;20206;-85
2021/07/13 04:32:00;;;;;;;43.17;36.00;;;18.90;99.90;;;;;;5047745;28;20194;-83
2021/07/13 04:34:29;;;;;;;47.17;35.60;;;18.90;99.90;;;;;;5048846;28;20342;-81
2021/07/13 04:36:55;;;;;;;46.17;35.55;;;18.90;99.90;;;;;;5033271;28;20210;-82
2021/07/13 04:39:22;;;;;;;48.92;36.60;;;18.90;99.90;;;;;;5027427;28;20206;-82
2021/07/13 04:41:49;;;;;;;48.22;37.25;;;18.90;99.90;;;;;;5027300;28;20265;-83
2021/07/13 04:44:16;;;;;;;47.67;36.97;;;18.80;99.90;;;;;;5028324;28;20186;-81
2021/07/13 04:46:43;;;;;;;43.10;35.13;;;18.90;99.90;;;;;;5028967;28;20502;-86
2021/07/13 04:49:09;;;;;;;48.53;37.63;;;18.80;99.90;;;;;;5027123;28;20210;-84
2021/07/13 04:51:38;;;;;;;47.97;37.30;;;18.90;99.90;;;;;;5028090;28;20214;-83
2021/07/13 04:54:04;;;;;;;42.95;33.85;;;18.90;99.90;;;;;;5027727;28;20206;-84
2021/07/13 04:56:31;;;;;;;45.50;35.30;;;18.90;99.90;;;;;;5027261;28;20210;-80
2021/07/13 04:58:58;;;;;;;47.28;36.15;;;18.90;99.90;;;;;;5027742;28;20210;-83
2021/07/13 05:01:27;;;;;;;43.50;33.70;;;18.90;99.90;;;;;;5026955;28;20226;-84
2021/07/13 05:03:54;;;;;;;44.88;33.95;;;18.90;99.90;;;;;;5026041;28;20207;-83
2021/07/13 05:06:21;;;;;;;43.92;36.20;;;19.00;99.90;;;;;;5039110;28;20206;-87
2021/07/13 05:08:50;;;;;;;44.10;34.70;;;19.00;99.90;;;;;;5048108;28;20256;-84
2021/07/13 05:11:17;;;;;;;43.85;35.90;;;19.00;99.90;;;;;;5025797;28;20205;-84
2021/07/13 05:13:43;;;;;;;45.17;34.13;;;19.00;99.90;;;;;;5025210;28;20214;-85
2021/07/13 05:16:10;;;;;;;43.28;35.35;;;19.00;99.90;;;;;;5025308;28;20540;-80
2021/07/13 05:18:37;;;;;;;40.55;33.13;;;19.10;99.90;;;;;;5023881;28;20495;-81
2021/07/13 05:21:05;;;;;;;45.22;32.03;;;19.10;99.90;;;;;;5025702;28;20223;-83
2021/07/13 05:23:33;;;;;;;46.75;34.47;;;19.10;99.90;;;;;;5025829;28;20222;-81
2021/07/13 05:26:01;;;;;;;45.95;36.92;;;19.10;99.90;;;;;;5025958;28;20221;-78
2021/07/13 05:28:28;;;;;;;44.10;35.17;;;19.10;99.90;;;;;;5025489;28;20214;-79
2021/07/13 05:30:55;;;;;;;48.05;37.35;;;19.20;99.90;;;;;;5024444;28;20206;-81
2021/07/13 05:33:22;;;;;;;41.70;33.75;;;19.20;99.90;;;;;;5024539;28;20234;-84
2021/07/13 05:35:49;;;;;;;46.30;35.45;;;19.30;99.90;;;;;;5024303;28;20210;-81
2021/07/13 05:38:16;;;;;;;43.38;34.20;;;19.30;99.90;;;;;;5025418;28;20202;-84
2021/07/13 05:40:45;;;;;;;46.97;36.35;;;19.30;99.90;;;;;;5025010;28;20261;-83
2021/07/13 05:43:14;;;;;;;40.25;33.92;;;19.40;99.90;;;;;;5025239;28;20473;-82
2021/07/13 05:45:41;;;;;;;40.83;33.97;;;19.40;99.90;;;;;;5024433;28;20769;-82
2021/07/13 05:48:08;;;;;;;42.72;34.30;;;19.40;99.90;;;;;;5024638;28;20213;-82
2021/07/13 05:50:35;;;;;;;41.30;33.20;;;19.40;99.90;;;;;;5025194;28;20209;-82
2021/07/13 05:53:02;;;;;;;45.75;35.33;;;19.40;99.90;;;;;;5025711;28;20716;-85
2021/07/13 05:55:29;;;;;;;41.22;33.50;;;19.40;99.90;;;;;;5026668;28;20293;-81
2021/07/13 05:57:56;;;;;;;41.47;33.65;;;19.50;99.90;;;;;;5024668;28;20218;-85
2021/07/13 06:00:24;;;;;;;36.33;31.45;;;19.50;99.90;;;;;;5025570;28;20213;-81
2021/07/13 06:02:51;;;;;;;38.72;32.30;;;19.60;99.90;;;;;;5027105;28;20206;-79
2021/07/13 06:05:18;;;;;;;34.58;30.73;;;19.60;99.90;;;;;;5026144;28;20194;-79
2021/07/13 06:07:46;;;;;;;34.60;29.33;;;19.70;99.90;;;;;;5027482;28;20202;-82
2021/07/13 06:10:15;;;;;;;34.13;29.25;;;19.70;99.90;;;;;;5025465;28;20202;-82
2021/07/13 06:12:42;;;;;;;34.17;28.95;;;19.70;99.90;;;;;;5026655;28;20934;-81
2021/07/13 06:15:10;;;;;;;32.85;27.65;;;19.70;99.90;;;;;;5027349;28;20202;-80
2021/07/13 06:17:40;;;;;;;34.85;29.40;;;19.70;99.90;;;;;;5028666;28;20206;-84
2021/07/13 06:20:08;;;;;;;34.15;26.90;;;19.70;99.90;;;;;;5030515;28;20858;-83
2021/07/13 06:22:35;;;;;;;38.03;30.55;;;19.80;99.90;;;;;;5030169;28;20229;-82
2021/07/13 06:25:02;;;;;;;37.33;30.05;;;19.80;99.90;;;;;;5030930;28;20531;-81
2021/07/13 06:27:28;;;;;;;37.20;30.73;;;19.80;99.90;;;;;;5029852;28;20217;-81
2021/07/13 06:29:56;;;;;;;35.60;28.70;;;19.80;99.90;;;;;;5029957;28;20606;-83
2021/07/13 06:32:22;;;;;;;33.92;29.30;;;19.80;99.90;;;;;;5030128;28;20213;-80
2021/07/13 06:34:51;;;;;;;32.20;26.38;;;19.80;99.90;;;;;;5030252;28;20195;-82
2021/07/13 06:37:18;;;;;;;36.22;28.67;;;19.80;99.90;;;;;;5029503;28;20268;-83
2021/07/13 06:39:44;;;;;;;31.65;27.05;;;19.90;99.90;;;;;;5030326;28;20218;-80
2021/07/13 06:42:11;;;;;;;34.88;27.65;;;19.80;99.90;;;;;;5030231;28;20571;-82
2021/07/13 06:44:38;;;;;;;34.83;28.20;;;19.90;99.90;;;;;;5030469;28;20209;-84
2021/07/13 06:47:05;;;;;;;33.60;28.63;;;19.90;99.90;;;;;;5030163;28;20206;-84
2021/07/13 06:49:32;;;;;;;36.20;29.25;;;19.90;99.90;;;;;;5031314;28;20298;-82
2021/07/13 06:52:00;;;;;;;39.80;31.75;;;19.80;99.90;;;;;;5047687;28;20209;-82
2021/07/13 06:54:27;;;;;;;37.17;29.52;;;19.80;99.90;;;;;;5050507;28;20533;-81
2021/07/13 06:56:54;;;;;;;37.40;29.63;;;19.80;99.90;;;;;;5045582;28;20233;-82
2021/07/13 06:59:21;;;;;;;40.28;30.23;;;19.70;99.90;;;;;;5029580;28;20202;-84
2021/07/13 07:01:48;;;;;;;34.67;28.85;;;19.70;99.90;;;;;;5029465;28;20898;-82
2021/07/13 07:04:15;;;;;;;37.05;28.92;;;19.80;99.90;;;;;;5028421;28;20207;-85
2021/07/13 07:07:26;;;;;;;39.38;28.85;;;19.70;99.90;;;;;;5028765;28;20211;-82
2021/07/13 07:09:55;;;;;;;37.08;30.30;;;19.80;99.90;;;;;;5028719;28;20211;-80
2021/07/13 07:12:21;;;;;;;37.13;28.77;;;19.80;99.90;;;;;;5029543;28;20230;-82
2021/07/13 07:14:48;;;;;;;34.72;29.50;;;19.70;99.90;;;;;;5030296;28;20195;-83
2021/07/13 07:17:15;;;;;;;35.72;28.63;;;19.70;99.90;;;;;;5030917;28;20210;-83
2021/07/13 07:19:42;;;;;;;34.22;28.02;;;19.70;99.90;;;;;;5031394;28;20657;-85
2021/07/13 07:22:09;;;;;;;35.65;28.90;;;19.70;99.90;;;;;;5029743;28;20267;-82
2021/07/13 07:24:35;;;;;;;33.72;27.70;;;19.70;99.90;;;;;;5028854;28;20194;-84
2021/07/13 07:27:04;;;;;;;36.00;30.42;;;19.70;99.90;;;;;;5028254;28;20199;-82
2021/07/13 07:29:31;;;;;;;34.53;28.98;;;19.70;99.90;;;;;;5027667;28;20215;-85
2021/07/13 07:34:23;;;;;;;32.80;28.40;;;19.70;99.90;;;;;;5033624;22;20241;-82
2021/07/13 07:36:50;;;;;;;31.85;27.10;;;19.70;99.90;;;;;;5026964;28;20565;-83
2021/07/13 07:39:17;;;;;;;33.05;26.30;;;19.70;99.90;;;;;;5007592;28;20760;-82
2021/07/13 07:41:44;;;;;;;35.88;29.67;;;19.70;99.90;;;;;;5008784;28;20242;-82
2021/07/13 07:44:12;;;;;;;32.72;27.40;;;19.70;99.90;;;;;;5007590;28;20200;-82
2021/07/13 07:46:42;;;;;;;31.45;27.67;;;19.70;99.90;;;;;;5008155;28;20231;-80
2021/07/13 07:49:09;;;;;;;33.47;27.48;;;19.70;99.90;;;;;;5007175;28;20249;-83
2021/07/13 07:51:36;;;;;;;33.17;27.83;;;19.70;99.90;;;;;;5006673;28;20671;-81
2021/07/13 07:54:03;;;;;;;29.58;26.02;;;19.70;99.90;;;;;;5011741;28;20211;-83
2021/07/13 07:56:29;;;;;;;33.83;29.38;;;19.70;99.90;;;;;;5026982;28;20762;-80
2021/07/13 07:58:56;;;;;;;31.52;27.10;;;19.70;99.90;;;;;;5027184;28;20202;-82
2021/07/13 08:01:24;;;;;;;33.40;27.60;;;19.70;99.90;;;;;;5016754;28;20240;-81
2021/07/13 08:03:51;;;;;;;32.13;26.67;;;19.70;99.90;;;;;;4990340;28;20231;-84
2021/07/13 08:06:18;;;;;;;32.45;28.75;;;19.80;99.90;;;;;;5005775;28;20215;-82
2021/07/13 08:08:45;;;;;;;36.78;28.75;;;19.80;99.90;;;;;;5007693;28;20210;-81
2021/07/13 08:11:12;;;;;;;35.03;28.38;;;19.80;99.90;;;;;;5006756;28;20207;-81
2021/07/13 08:13:39;;;;;;;32.20;25.85;;;19.90;99.90;;;;;;5007013;28;20210;-81
2021/07/13 08:16:06;;;;;;;33.90;27.20;;;19.90;99.90;;;;;;5007202;28;20202;-83
2021/07/13 08:18:34;;;;;;;34.22;28.75;;;19.90;99.90;;;;;;5007571;28;20203;-80
2021/07/13 08:21:01;;;;;;;32.70;26.40;;;19.90;99.90;;;;;;5006386;28;20291;-82
2021/07/13 08:23:28;;;;;;;35.97;27.50;;;19.90;99.90;;;;;;5010872;28;20218;-87
2021/07/13 08:25:55;;;;;;;34.10;27.63;;;19.90;99.90;;;;;;5027403;28;20549;-84
2021/07/13 08:28:22;;;;;;;34.42;27.42;;;19.90;99.90;;;;;;5028241;28;20203;-83
2021/07/13 08:30:49;;;;;;;30.65;24.92;;;19.90;99.90;;;;;;5030055;28;20206;-83
2021/07/13 08:33:16;;;;;;;38.38;28.02;;;19.90;99.90;;;;;;5009257;28;20239;-81
2021/07/13 08:35:44;;;;;;;32.50;27.75;;;19.90;99.90;;;;;;5007450;28;20206;-80
2021/07/13 08:38:11;;;;;;;35.25;27.17;;;20.00;99.90;;;;;;5007462;28;20210;-82
2021/07/13 08:40:38;;;;;;;34.33;26.40;;;20.00;99.90;;;;;;5007973;28;20195;-81
2021/07/13 08:43:04;;;;;;;38.25;29.75;;;20.00;99.90;;;;;;5005969;28;20235;-80
2021/07/13 08:45:32;;;;;;;37.85;28.45;;;20.10;99.90;;;;;;5007928;28;20227;-84
2021/07/13 08:47:58;;;;;;;36.03;28.73;;;20.10;99.90;;;;;;5006565;28;20737;-81
2021/07/13 08:50:26;;;;;;;36.05;27.77;;;20.10;99.90;;;;;;5010174;28;20207;-82
2021/07/13 08:52:54;;;;;;;32.60;25.95;;;20.10;99.90;;;;;;5028797;28;20186;-81
2021/07/13 08:55:24;;;;;;;35.55;26.95;;;20.30;99.90;;;;;;5025256;28;20199;-86
2021/07/13 08:57:51;;;;;;;34.80;26.75;;;20.20;99.90;;;;;;5014620;28;20210;-82
2021/07/13 09:00:20;;;;;;;35.15;28.42;;;20.20;99.90;;;;;;5006280;28;20507;-80
2021/07/13 09:03:09;;;;;;;36.22;27.77;;;20.30;99.90;;;;;;5005033;28;20219;-82
2021/07/13 09:05:47;;;;;;;34.22;28.45;;;20.20;99.90;;;;;;5007244;28;20258;-83
2021/07/13 09:08:22;;;;;;;32.15;25.05;;;20.20;99.90;;;;;;5005868;28;20590;-81
2021/07/13 09:11:10;;;;;;;32.67;26.13;;;20.30;99.90;;;;;;5006073;28;20203;-79
2021/07/13 09:13:39;;;;;;;28.02;24.40;;;20.30;99.90;;;;;;5005938;28;20295;-81
2021/07/13 09:16:07;;;;;;;27.45;22.90;;;20.30;99.90;;;;;;5005588;28;20199;-82
2021/07/13 09:18:35;;;;;;;27.45;23.00;;;20.40;99.90;;;;;;5007168;28;20207;-81
2021/07/13 09:21:11;;;;;;;27.80;23.85;;;20.60;99.90;;;;;;5019554;28;20215;-82
2021/07/13 09:24:04;;;;;;;26.08;22.30;;;20.70;99.90;;;;;;5005616;28;20226;-80
2021/07/13 09:26:53;;;;;;;21.67;19.35;;;20.80;99.90;;;;;;5005765;28;20206;-83
2021/07/13 09:29:31;;;;;;;28.33;23.75;;;20.90;99.90;;;;;;5001003;28;20207;-80
2021/07/13 09:32:17;;;;;;;23.77;19.27;;;21.00;99.90;;;;;;5004546;28;20192;-82
2021/07/13 09:34:48;;;;;;;28.30;21.63;;;21.10;99.90;;;;;;5007288;28;20218;-84
2021/07/13 09:37:22;;;;;;;22.85;17.80;;;21.20;99.90;;;;;;5004440;28;20207;-81
2021/07/13 09:40:06;;;;;;;25.35;19.10;;;21.20;99.90;;;;;;5005782;28;20235;-82
2021/07/13 09:42:36;;;;;;;26.15;19.95;;;21.40;99.90;;;;;;5005587;28;20897;-77
2021/07/13 09:45:19;;;;;;;24.23;20.58;;;21.40;99.90;;;;;;5015681;28;20233;-81
2021/07/13 09:47:47;;;;;;;20.92;18.33;;;21.40;99.90;;;;;;5008015;28;20249;-80
2021/07/13 09:50:30;;;;;;;25.52;20.70;;;21.40;99.90;;;;;;5006510;28;20219;-82
2021/07/13 09:53:00;;;;;;;25.92;20.50;;;21.20;99.90;;;;;;5013775;28;20199;-83
2021/07/13 09:55:29;;;;;;;26.17;21.70;;;21.10;99.90;;;;;;5013678;28;20202;-81
2021/07/13 09:58:11;;;;;;;27.05;21.08;;;21.10;99.90;;;;;;5011393;28;20199;-81
2021/07/13 10:00:39;;;;;;;24.98;21.08;;;21.20;99.90;;;;;;5011314;28;20206;-81
2021/07/13 10:03:07;;;;;;;26.45;20.20;;;21.10;99.90;;;;;;5011364;28;20222;-81
2021/07/13 10:05:36;;;;;;;22.67;18.60;;;21.10;99.90;;;;;;5011712;28;20206;-82
2021/07/13 10:08:03;;;;;;;22.60;19.10;;;21.10;99.90;;;;;;5011169;28;20348;-82
2021/07/13 10:10:32;;;;;;;23.40;18.60;;;21.00;99.90;;;;;;5011564;28;20203;-82
2021/07/13 10:13:00;;;;;;;20.65;18.38;;;20.90;99.90;;;;;;5011158;28;20210;-82
2021/07/13 10:15:28;;;;;;;21.23;17.63;;;20.80;99.90;;;;;;5011336;28;20184;-82
2021/07/13 10:17:55;;;;;;;21.33;17.38;;;20.80;99.90;;;;;;5011692;28;20199;-82
2021/07/13 10:20:30;;;;;;;24.15;19.40;;;20.80;99.90;;;;;;5011478;28;20210;-82
2021/07/13 10:22:58;;;;;;;21.42;19.08;;;20.80;99.90;;;;;;5028733;28;20225;-86
2021/07/13 10:25:38;;;;;;;23.52;19.67;;;20.90;99.90;;;;;;5020859;28;20202;-83
2021/07/13 10:28:05;;;;;;;23.15;20.10;;;20.90;99.90;;;;;;5011454;28;20626;-82
2021/07/13 10:30:38;;;;;;;21.20;18.77;;;20.90;99.90;;;;;;5011313;28;20191;-81
2021/07/13 10:33:35;;;;;;;23.33;18.55;;;20.90;99.90;;;;;;5015163;28;20230;-81
2021/07/13 10:36:41;;;;;;;22.40;17.25;;;20.80;99.90;;;;;;5030605;28;20209;-80
2021/07/13 10:39:28;;;;;;;19.17;16.10;;;20.90;99.90;;;;;;4970257;28;20240;-82
2021/07/13 10:41:58;;;;;;;18.50;14.52;;;21.00;99.90;;;;;;4957251;28;20299;-88
2021/07/13 10:44:41;;;;;;;15.73;14.13;;;21.00;99.90;;;;;;4990706;28;20207;-82
2021/07/13 10:47:30;;;;;;;15.55;13.88;;;21.00;99.90;;;;;;5013046;28;20211;-83
2021/07/13 10:50:37;;;;;;;17.13;13.73;;;21.00;99.90;;;;;;5008252;28;20318;-81
2021/07/13 10:53:05;;;;;;;18.15;14.73;;;21.00;99.90;;;;;;5013248;28;20203;-84
2021/07/13 10:55:49;;;;;;;15.90;13.95;;;21.00;99.90;;;;;;5012103;28;20215;-80
2021/07/13 10:58:38;;;;;;;13.75;12.43;;;21.10;99.90;;;;;;5013007;28;20211;-83
2021/07/13 11:01:08;;;;;;;13.65;12.27;;;21.20;99.90;;;;;;5012440;28;20207;-79
2021/07/13 11:04:07;;;;;;;15.13;13.35;;;21.30;99.90;;;;;;5009656;28;20231;-82
2021/07/13 11:06:49;;;;;;;13.40;12.00;;;21.40;99.90;;;;;;5022513;28;20208;-83
2021/07/13 11:09:21;;;;;;;16.27;12.57;;;21.40;99.90;;;;;;5010827;28;20497;-81
2021/07/13 11:11:48;;;;;;;14.82;12.43;;;21.30;99.90;;;;;;5012747;28;20195;-82
2021/07/13 11:14:16;;;;;;;13.00;11.73;;;21.30;99.90;;;;;;5017471;28;20482;-81
2021/07/13 11:16:45;;;;;;;15.80;12.82;;;21.30;99.90;;;;;;5029393;28;20202;-81
2021/07/13 11:19:15;;;;;;;18.27;14.75;;;21.20;99.90;;;;;;5030205;28;20194;-84
2021/07/13 11:21:44;;;;;;;15.20;13.50;;;21.20;99.90;;;;;;5030817;28;20198;-84
2021/07/13 11:24:13;;;;;;;16.58;13.68;;;21.10;99.90;;;;;;5016228;28;20235;-83
2021/07/13 11:26:44;;;;;;;16.40;13.15;;;21.10;99.90;;;;;;5010530;28;20967;-85
2021/07/13 11:29:19;;;;;;;14.82;13.10;;;21.10;99.90;;;;;;5017987;28;20233;-81
2021/07/13 11:31:49;;;;;;;14.63;13.02;;;21.10;99.90;;;;;;5028920;28;20209;-83
2021/07/13 11:34:18;;;;;;;18.55;14.85;;;21.10;99.90;;;;;;5027966;28;20230;-83
2021/07/13 11:36:47;;;;;;;17.45;14.82;;;21.10;99.90;;;;;;5020358;28;20615;-84
2021/07/13 11:39:15;;;;;;;16.65;14.90;;;21.00;99.90;;;;;;5008800;28;20580;-83
2021/07/13 11:41:43;;;;;;;16.83;14.55;;;20.90;99.90;;;;;;5009702;28;20269;-81
2021/07/13 11:44:12;;;;;;;19.52;15.27;;;20.80;99.90;;;;;;5007420;28;20237;-83
2021/07/13 11:46:42;;;;;;;17.00;13.98;;;20.90;99.90;;;;;;5027295;28;20404;-81
2021/07/13 11:49:10;;;;;;;24.35;15.27;;;20.90;99.90;;;;;;5027011;28;20213;-82
2021/07/13 11:51:39;;;;;;;20.48;14.23;;;21.10;99.90;;;;;;5011767;28;20218;-81
2021/07/13 11:54:08;;;;;;;20.13;14.02;;;21.20;99.90;;;;;;5007063;28;20215;-82
2021/07/13 11:56:36;;;;;;;17.77;14.50;;;21.20;99.90;;;;;;5025544;28;20294;-83
2021/07/13 11:59:03;;;;;;;16.70;13.50;;;21.30;99.90;;;;;;5028218;28;20202;-81
2021/07/13 12:01:32;;;;;;;17.98;14.15;;;21.40;99.90;;;;;;5011022;28;20214;-83
2021/07/13 12:04:04;;;;;;;12.82;11.43;;;21.60;99.90;;;;;;5008600;28;20234;-80
2021/07/13 12:06:32;;;;;;;14.10;12.45;;;21.70;99.90;;;;;;5007705;28;20298;-83
2021/07/13 12:09:00;;;;;;;14.38;11.60;;;21.90;99.90;;;;;;5008082;28;20757;-83
2021/07/13 12:11:29;;;;;;;15.07;11.10;;;21.90;99.90;;;;;;5007686;28;20211;-82
2021/07/13 12:13:58;;;;;;;16.17;12.15;;;22.00;99.90;;;;;;5007280;28;20203;-81
2021/07/13 12:16:28;;;;;;;13.63;11.07;;;21.90;99.90;;;;;;5019450;28;20210;-82
2021/07/13 12:18:57;;;;;;;17.25;11.93;;;21.90;99.90;;;;;;5026140;28;21028;-82
2021/07/13 12:21:25;;;;;;;15.15;11.55;;;22.00;99.90;;;;;;5027380;28;20213;-80
2021/07/13 12:23:54;;;;;;;21.27;12.73;;;22.10;99.90;;;;;;5022958;28;20266;-83
2021/07/13 12:26:22;;;;;;;16.10;12.07;;;22.10;99.90;;;;;;5015407;28;20210;-82
2021/07/13 12:29:04;;;;;;;15.10;11.80;;;22.10;99.90;;;;;;5015406;28;20203;-83
2021/07/13 12:31:31;;;;;;;19.23;11.70;;;22.00;99.90;;;;;;5008917;28;20199;-81
2021/07/13 12:33:58;;;;;;;18.30;11.52;;;21.90;99.90;;;;;;5007379;28;20242;-81
2021/07/13 12:36:27;;;;;;;17.10;11.80;;;21.80;99.90;;;;;;5007130;28;20207;-81
2021/07/13 12:38:56;;;;;;;14.25;11.43;;;21.70;99.90;;;;;;5007753;28;20211;-80
2021/07/13 12:41:27;;;;;;;16.25;10.50;;;21.60;99.90;;;;;;5006672;28;20196;-82
2021/07/13 12:43:54;;;;;;;15.88;11.57;;;21.60;99.90;;;;;;5027043;28;20237;-82